createdAt,value
2019-01-26T00:01:26.395Z,2.00
2019-01-26T00:04:17.362Z,2.10
2019-01-26T00:07:07.834Z,1.90
2019-01-26T00:10:00.176Z,1.77
2019-01-26T00:12:50.571Z,1.83
2019-01-26T00:15:41.188Z,1.90
2019-01-26T00:18:31.554Z,1.97
2019-01-26T00:21:22.164Z,1.93
2019-01-26T00:24:12.753Z,1.73
2019-01-26T00:27:03.420Z,2.10
2019-01-26T00:29:54.043Z,1.97
2019-01-26T00:32:44.332Z,1.83
2019-01-26T00:35:34.692Z,2.20
2019-01-26T00:38:25.292Z,1.87
2019-01-26T00:41:15.639Z,1.83
2019-01-26T00:44:05.942Z,2.03
2019-01-26T00:46:56.492Z,2.97
2019-01-26T00:49:47.148Z,3.23
2019-01-26T00:52:37.699Z,2.63
2019-01-26T00:55:28.270Z,2.80
2019-01-26T00:58:18.671Z,2.83
2019-01-26T01:01:09.366Z,2.90
2019-01-26T01:03:59.962Z,2.60
2019-01-26T01:06:50.263Z,2.33
2019-01-26T01:09:40.486Z,2.53
2019-01-26T01:12:30.850Z,2.60
2019-01-26T01:15:21.334Z,2.70
2019-01-26T01:18:11.588Z,2.37
2019-01-26T01:21:02.309Z,2.37
2019-01-26T01:23:52.705Z,2.40
2019-01-26T01:26:43.227Z,2.30
2019-01-26T01:29:34.047Z,2.00
2019-01-26T01:32:24.422Z,2.00
2019-01-26T01:35:14.607Z,1.77
2019-01-26T01:38:05.044Z,1.90
2019-01-26T01:40:55.963Z,2.07
2019-01-26T01:43:46.201Z,2.10
2019-01-26T01:46:42.759Z,1.83
2019-01-26T01:49:28.708Z,1.83
2019-01-26T01:52:19.021Z,2.03
2019-01-26T01:55:09.909Z,1.63
2019-01-26T01:58:02.805Z,1.47
2019-01-26T02:00:53.205Z,1.67
2019-01-26T02:03:43.618Z,2.00
2019-01-26T02:06:33.862Z,1.90
2019-01-26T02:09:24.558Z,1.70
2019-01-26T02:12:15.129Z,2.20
2019-01-26T02:15:06.005Z,2.13
2019-01-26T02:17:56.139Z,2.30
2019-01-26T02:20:46.705Z,2.13
2019-01-26T02:23:37.263Z,2.33
2019-01-26T02:26:27.777Z,1.87
2019-01-26T02:29:18.228Z,2.00
2019-01-26T02:32:08.693Z,2.23
2019-01-26T02:34:59.125Z,1.93
2019-01-26T02:37:49.501Z,1.90
2019-01-26T02:40:39.841Z,1.87
2019-01-26T02:43:30.544Z,2.07
2019-01-26T02:46:21.134Z,2.00
2019-01-26T02:49:11.691Z,2.13
2019-01-26T02:52:02.272Z,2.57
2019-01-26T02:54:52.750Z,2.70
2019-01-26T02:57:43.219Z,2.30
2019-01-26T03:00:33.694Z,2.83
2019-01-26T03:03:24.158Z,2.80
2019-01-26T03:06:14.722Z,2.40
2019-01-26T03:09:08.317Z,2.53
2019-01-26T03:11:58.800Z,2.20
2019-01-26T03:14:49.212Z,2.50
2019-01-26T03:17:39.684Z,2.40
2019-01-26T03:20:30.265Z,2.40
2019-01-26T03:23:20.932Z,2.50
2019-01-26T03:26:14.362Z,2.57
2019-01-26T03:29:04.862Z,2.50
2019-01-26T03:31:55.335Z,2.10
2019-01-26T03:34:45.768Z,2.40
2019-01-26T03:37:36.166Z,2.50
2019-01-26T03:40:26.482Z,2.30
2019-01-26T03:43:17.060Z,2.10
2019-01-26T03:46:07.719Z,2.17
2019-01-26T03:48:58.219Z,1.93
2019-01-26T03:51:50.917Z,2.10
2019-01-26T03:54:41.003Z,2.40
2019-01-26T03:57:31.252Z,2.00
2019-01-26T04:00:23.807Z,2.20
2019-01-26T04:03:14.074Z,2.23
2019-01-26T04:06:04.451Z,2.80
2019-01-26T04:08:55.034Z,2.27
2019-01-26T04:11:45.636Z,2.60
2019-01-26T04:14:36.015Z,2.90
2019-01-26T04:17:26.420Z,2.40
2019-01-26T04:20:18.761Z,2.20
2019-01-26T04:23:09.067Z,2.07
2019-01-26T04:25:59.649Z,2.13
2019-01-26T04:28:50.525Z,2.57
2019-01-26T04:31:41.050Z,2.33
2019-01-26T04:34:31.383Z,2.13
2019-01-26T04:37:21.898Z,2.60
2019-01-26T04:40:13.906Z,2.10
2019-01-26T04:43:06.612Z,2.20
2019-01-26T04:45:56.854Z,1.90
2019-01-26T04:48:47.431Z,2.07
2019-01-26T04:51:38.043Z,2.50
2019-01-26T04:54:28.671Z,2.80
2019-01-26T04:57:19.085Z,3.20
2019-01-26T05:00:14.243Z,2.23
2019-01-26T05:03:04.573Z,2.70
2019-01-26T05:05:54.828Z,2.87
2019-01-26T05:08:45.259Z,2.80
2019-01-26T05:11:35.686Z,2.43
2019-01-26T05:14:25.920Z,2.63
2019-01-26T05:17:17.636Z,2.70
2019-01-26T05:20:10.712Z,3.37
2019-01-26T05:23:01.237Z,3.10
2019-01-26T05:25:51.723Z,2.97
2019-01-26T05:28:42.050Z,3.20
2019-01-26T05:31:32.627Z,3.40
2019-01-26T05:34:22.969Z,3.30
2019-01-26T05:37:13.487Z,3.70
2019-01-26T05:40:03.853Z,3.93
2019-01-26T05:42:54.290Z,3.50
2019-01-26T05:45:44.543Z,3.63
2019-01-26T05:48:34.846Z,3.70
2019-01-26T05:51:29.250Z,4.23
2019-01-26T05:54:25.797Z,4.47
2019-01-26T05:57:17.501Z,5.50
2019-01-26T06:00:10.055Z,6.33
2019-01-26T06:03:00.293Z,8.10
2019-01-26T06:05:51.062Z,7.07
2019-01-26T06:08:41.644Z,7.50
2019-01-26T06:11:31.903Z,7.73
2019-01-26T06:14:22.380Z,8.13
2019-01-26T06:17:12.804Z,8.27
2019-01-26T06:20:03.379Z,7.00
2019-01-26T06:22:53.916Z,8.17
2019-01-26T06:25:44.427Z,6.70
2019-01-26T06:28:34.954Z,5.90
2019-01-26T06:31:25.567Z,5.70
2019-01-26T06:34:16.158Z,6.07
2019-01-26T06:37:06.788Z,6.60
2019-01-26T06:39:57.368Z,6.83
2019-01-26T06:42:47.699Z,6.63
2019-01-26T06:45:38.103Z,7.10
2019-01-26T06:48:28.391Z,6.97
2019-01-26T06:51:18.837Z,7.00
2019-01-26T06:54:11.994Z,7.30
2019-01-26T06:57:02.467Z,6.50
2019-01-26T06:59:52.621Z,7.20
2019-01-26T07:02:43.108Z,7.13
2019-01-26T07:06:04.703Z,6.93
2019-01-26T07:08:55.122Z,6.33
2019-01-26T07:11:45.478Z,6.17
2019-01-26T07:14:36.182Z,5.73
2019-01-26T07:17:26.917Z,5.47
2019-01-26T07:20:18.412Z,5.67
2019-01-26T07:23:09.392Z,5.00
2019-01-26T07:25:59.554Z,4.73
2019-01-26T07:28:49.844Z,4.33
2019-01-26T07:31:40.337Z,4.80
2019-01-26T07:34:32.633Z,4.40
2019-01-26T07:37:23.026Z,4.30
2019-01-26T07:40:16.604Z,3.70
2019-01-26T07:43:10.302Z,4.40
2019-01-26T07:46:00.689Z,3.53
2019-01-26T07:48:51.099Z,3.87
2019-01-26T07:51:41.338Z,3.27
2019-01-26T07:54:31.819Z,2.60
2019-01-26T07:57:22.600Z,2.87
2019-01-26T08:00:16.165Z,3.27
2019-01-26T08:03:06.840Z,2.93
2019-01-26T08:05:57.314Z,2.43
2019-01-26T08:08:47.854Z,3.03
2019-01-26T08:11:38.662Z,3.77
2019-01-26T08:14:29.404Z,4.40
2019-01-26T08:17:20.152Z,4.00
2019-01-26T08:20:13.444Z,3.10
2019-01-26T08:23:06.554Z,3.07
2019-01-26T08:25:57.175Z,3.37
2019-01-26T08:28:47.831Z,3.30
2019-01-26T08:31:38.118Z,4.37
2019-01-26T08:34:28.372Z,3.83
2019-01-26T08:37:18.698Z,3.03
2019-01-26T08:40:10.595Z,2.53
2019-01-26T08:43:01.098Z,4.53
2019-01-26T08:45:51.629Z,5.00
2019-01-26T08:48:42.125Z,5.20
2019-01-26T08:51:32.597Z,4.60
2019-01-26T08:54:23.249Z,4.90
2019-01-26T08:57:13.722Z,5.93
2019-01-26T09:00:04.448Z,6.13
2019-01-26T09:03:13.922Z,5.07
2019-01-26T09:06:10.798Z,5.33
2019-01-26T09:09:01.338Z,5.60
2019-01-26T09:11:53.536Z,5.43
2019-01-26T09:14:44.070Z,5.27
2019-01-26T09:17:34.341Z,6.10
2019-01-26T09:20:24.863Z,5.63
2019-01-26T09:23:15.660Z,6.07
2019-01-26T09:26:05.977Z,6.87
2019-01-26T09:28:56.728Z,6.80
2019-01-26T09:31:47.215Z,6.97
2019-01-26T09:34:37.703Z,7.73
2019-01-26T09:37:28.318Z,7.80
2019-01-26T09:40:18.574Z,7.90
2019-01-26T09:43:09.777Z,7.67
2019-01-26T09:46:00.364Z,6.87
2019-01-26T09:48:50.770Z,6.97
2019-01-26T09:51:41.004Z,6.83
2019-01-26T09:54:31.396Z,6.50
2019-01-26T09:57:22.948Z,7.50
2019-01-26T10:00:16.203Z,7.13
2019-01-26T10:03:06.660Z,7.00
2019-01-26T10:05:56.927Z,7.30
2019-01-26T10:08:47.634Z,6.43
2019-01-26T10:11:38.117Z,6.60
2019-01-26T10:14:28.595Z,6.47
2019-01-26T10:17:18.987Z,6.63
2019-01-26T10:20:16.066Z,6.77
2019-01-26T10:23:06.389Z,7.13
2019-01-26T10:25:57.106Z,7.57
2019-01-26T10:28:47.629Z,7.27
2019-01-26T10:31:38.465Z,7.27
2019-01-26T10:34:28.928Z,7.93
2019-01-26T10:37:23.636Z,8.20
2019-01-26T10:40:42.631Z,8.80
2019-01-26T10:43:34.813Z,8.30
2019-01-26T10:46:24.906Z,9.40
2019-01-26T10:49:15.182Z,8.40
2019-01-26T10:52:05.494Z,9.37
2019-01-26T10:54:56.099Z,9.53
2019-01-26T10:57:46.569Z,9.53
2019-01-26T11:00:37.200Z,10.23
2019-01-26T11:03:27.812Z,10.03
2019-01-26T11:06:18.044Z,10.70
2019-01-26T11:09:11.606Z,10.93
2019-01-26T11:12:01.817Z,10.57
2019-01-26T11:14:52.161Z,11.20
2019-01-26T11:17:42.692Z,11.37
2019-01-26T11:20:32.866Z,10.83
2019-01-26T11:23:23.161Z,10.57
2019-01-26T11:26:13.330Z,10.73
2019-01-26T11:29:04.245Z,13.07
2019-01-26T11:31:54.704Z,11.20
2019-01-26T11:34:46.975Z,11.30
2019-01-26T11:37:37.512Z,9.97
2019-01-26T11:40:28.352Z,9.93
2019-01-26T11:43:18.696Z,10.20
2019-01-26T11:46:30.864Z,10.43
2019-01-26T11:49:21.091Z,10.33
2019-01-26T11:52:11.814Z,10.83
2019-01-26T11:55:30.662Z,10.57
2019-01-26T11:58:20.668Z,11.40
2019-01-26T12:01:32.729Z,10.50
2019-01-26T12:04:45.162Z,12.17
2019-01-26T12:07:36.887Z,10.80
2019-01-26T12:10:27.650Z,11.10
2019-01-26T12:13:18.315Z,12.07
2019-01-26T12:16:08.966Z,11.93
2019-01-26T12:18:59.313Z,12.37
2019-01-26T12:21:49.942Z,12.20
2019-01-26T12:24:40.256Z,12.20
2019-01-26T12:27:30.798Z,11.60
2019-01-26T12:30:20.927Z,11.77
2019-01-26T12:33:11.243Z,12.23
2019-01-26T12:36:01.682Z,14.27
2019-01-26T12:38:52.268Z,13.30
2019-01-26T12:41:42.844Z,13.13
2019-01-26T12:44:33.124Z,12.90
2019-01-26T12:47:23.801Z,13.23
2019-01-26T12:50:14.601Z,13.43
2019-01-26T12:53:05.074Z,13.23
2019-01-26T12:55:56.810Z,12.87
2019-01-26T12:58:49.480Z,12.97
2019-01-26T13:01:40.101Z,14.07
2019-01-26T13:04:30.246Z,13.33
2019-01-26T13:07:21.668Z,13.63
2019-01-26T13:10:16.423Z,14.30
2019-01-26T13:13:06.984Z,14.33
2019-01-26T13:15:57.425Z,13.40
2019-01-26T13:18:48.115Z,13.17
2019-01-26T13:21:38.592Z,13.53
2019-01-26T13:24:28.839Z,14.30
2019-01-26T13:27:19.006Z,14.17
2019-01-26T13:30:15.392Z,14.37
2019-01-26T13:33:05.805Z,14.00
2019-01-26T13:35:56.020Z,14.43
2019-01-26T13:38:50.094Z,14.27
2019-01-26T13:41:40.680Z,14.03
2019-01-26T13:44:30.959Z,14.60
2019-01-26T13:47:21.608Z,13.73
2019-01-26T13:50:13.805Z,14.53
2019-01-26T13:53:04.890Z,14.57
2019-01-26T13:55:55.387Z,16.00
2019-01-26T13:58:45.915Z,14.50
2019-01-26T14:01:36.557Z,15.57
2019-01-26T14:04:26.969Z,14.83
2019-01-26T14:07:17.353Z,14.67
2019-01-26T14:10:08.443Z,15.40
2019-01-26T14:12:58.964Z,15.60
2019-01-26T14:15:49.543Z,16.20
2019-01-26T14:18:39.920Z,18.33
2019-01-26T14:21:30.369Z,15.87
2019-01-26T14:24:20.877Z,17.17
2019-01-26T14:27:14.582Z,15.67
2019-01-26T14:30:06.357Z,16.90
2019-01-26T14:32:56.913Z,17.37
2019-01-26T14:35:47.064Z,16.37
2019-01-26T14:38:37.773Z,16.13
2019-01-26T14:41:28.301Z,16.47
2019-01-26T14:44:19.336Z,16.57
2019-01-26T14:47:10.113Z,16.37
2019-01-26T14:50:00.530Z,17.03
2019-01-26T14:52:50.966Z,18.00
2019-01-26T14:55:41.583Z,17.23
2019-01-26T14:58:32.166Z,18.00
2019-01-26T15:01:22.767Z,17.47
2019-01-26T15:04:13.120Z,16.60
2019-01-26T15:07:03.821Z,14.63
2019-01-26T15:09:54.212Z,15.80
2019-01-26T15:12:44.976Z,19.10
2019-01-26T15:15:35.271Z,17.67
2019-01-26T15:18:25.872Z,15.73
2019-01-26T15:21:16.441Z,16.83
2019-01-26T15:24:06.903Z,17.40
2019-01-26T15:26:57.268Z,18.07
2019-01-26T15:29:47.995Z,16.10
2019-01-26T15:32:38.401Z,17.40
2019-01-26T15:35:28.852Z,16.53
2019-01-26T15:38:19.292Z,17.53
2019-01-26T15:41:09.781Z,17.50
2019-01-26T15:44:00.180Z,17.57
2019-01-26T15:46:50.868Z,16.73
2019-01-26T15:49:41.443Z,17.20
2019-01-26T15:52:32.044Z,17.77
2019-01-26T15:55:23.793Z,17.27
2019-01-26T15:58:14.055Z,18.70
2019-01-26T16:01:04.744Z,17.80
2019-01-26T16:03:54.916Z,17.33
2019-01-26T16:06:45.443Z,18.23
2019-01-26T16:09:35.787Z,18.23
2019-01-26T16:12:26.153Z,17.90
2019-01-26T16:15:18.963Z,17.20
2019-01-26T16:18:14.831Z,18.33
2019-01-26T16:21:07.684Z,19.63
2019-01-26T16:23:57.773Z,18.27
2019-01-26T16:26:48.400Z,16.97
2019-01-26T16:29:38.595Z,17.97
2019-01-26T16:32:28.830Z,16.43
2019-01-26T16:35:18.984Z,16.27
2019-01-26T16:38:09.387Z,18.93
2019-01-26T16:40:59.659Z,18.23
2019-01-26T16:43:50.996Z,16.70
2019-01-26T16:46:41.747Z,16.87
2019-01-26T16:49:32.161Z,17.60
2019-01-26T16:52:23.521Z,17.40
2019-01-26T16:55:15.017Z,17.97
2019-01-26T16:58:05.568Z,16.97
2019-01-26T17:00:58.561Z,17.97
2019-01-26T17:03:51.412Z,16.53
2019-01-26T17:06:41.978Z,17.13
2019-01-26T17:09:32.509Z,16.90
2019-01-26T17:12:22.971Z,14.47
2019-01-26T17:15:13.223Z,14.03
2019-01-26T17:18:03.755Z,14.60
2019-01-26T17:20:54.175Z,15.17
2019-01-26T17:23:45.057Z,16.50
2019-01-26T17:26:35.267Z,15.50
2019-01-26T17:29:25.695Z,15.93
2019-01-26T17:32:16.295Z,15.53
2019-01-26T17:35:08.580Z,14.93
2019-01-26T17:37:59.009Z,14.73
2019-01-26T17:40:54.232Z,13.50
2019-01-26T17:43:41.763Z,14.90
2019-01-26T17:46:32.612Z,14.90
2019-01-26T17:49:23.737Z,15.00
2019-01-26T17:52:13.949Z,14.07
2019-01-26T17:55:06.053Z,15.43
2019-01-26T17:57:56.496Z,14.17
2019-01-26T18:01:05.054Z,15.07
2019-01-26T18:03:55.428Z,14.23
2019-01-26T18:06:45.991Z,13.60
2019-01-26T18:09:36.348Z,13.43
2019-01-26T18:12:26.948Z,14.70
2019-01-26T18:15:17.386Z,15.67
2019-01-26T18:18:07.752Z,15.77
2019-01-26T18:20:58.125Z,15.27
2019-01-26T18:23:48.950Z,15.57
2019-01-26T18:26:39.573Z,15.40
2019-01-26T18:29:30.016Z,16.27
2019-01-26T18:32:20.959Z,16.30
2019-01-26T18:35:12.557Z,15.37
2019-01-26T18:38:02.857Z,16.30
2019-01-26T18:40:53.368Z,15.60
2019-01-26T18:43:43.913Z,15.90
2019-01-26T18:46:34.429Z,16.87
2019-01-26T18:49:24.823Z,16.13
2019-01-26T18:52:15.025Z,15.70
2019-01-26T18:55:05.626Z,17.17
2019-01-26T18:57:56.916Z,17.93
2019-01-26T19:00:50.339Z,17.47
2019-01-26T19:03:50.508Z,16.40
2019-01-26T19:06:40.952Z,18.30
2019-01-26T19:09:31.387Z,17.20
2019-01-26T19:12:22.424Z,17.63
2019-01-26T19:15:16.232Z,17.57
2019-01-26T19:18:06.673Z,17.27
2019-01-26T19:21:03.163Z,16.80
2019-01-26T19:23:50.069Z,15.73
2019-01-26T19:26:40.240Z,16.67
2019-01-26T19:29:30.774Z,16.07
2019-01-26T19:32:21.264Z,15.40
2019-01-26T19:35:11.907Z,16.33
2019-01-26T19:38:02.287Z,16.30
2019-01-26T19:40:52.965Z,16.30
2019-01-26T19:43:43.490Z,16.67
2019-01-26T19:46:34.080Z,16.43
2019-01-26T19:49:24.244Z,18.40
2019-01-26T19:52:14.772Z,17.70
2019-01-26T19:55:05.607Z,17.03
2019-01-26T19:57:56.074Z,17.37
2019-01-26T20:00:46.637Z,16.67
2019-01-26T20:03:38.591Z,16.77
2019-01-26T20:06:29.074Z,16.70
2019-01-26T20:09:19.746Z,16.87
2019-01-26T20:12:10.304Z,16.40
2019-01-26T20:15:03.705Z,15.67
2019-01-26T20:17:54.161Z,15.90
2019-01-26T20:20:44.982Z,15.93
2019-01-26T20:23:35.668Z,15.07
2019-01-26T20:26:26.163Z,15.40
2019-01-26T20:29:17.585Z,15.93
2019-01-26T20:32:08.209Z,14.77
2019-01-26T20:34:58.675Z,14.73
2019-01-26T20:37:49.237Z,14.30
2019-01-26T20:40:39.691Z,14.33
2019-01-26T20:43:31.180Z,13.57
2019-01-26T20:46:21.342Z,13.40
2019-01-26T20:49:11.767Z,14.30
2019-01-26T20:52:02.231Z,12.77
2019-01-26T20:54:52.868Z,13.93
2019-01-26T20:57:43.660Z,13.23
2019-01-26T21:00:34.298Z,14.00
2019-01-26T21:03:24.904Z,14.30
2019-01-26T21:06:15.239Z,14.23
2019-01-26T21:09:08.154Z,13.93
2019-01-26T21:12:01.424Z,13.63
2019-01-26T21:14:51.974Z,12.63
2019-01-26T21:17:43.475Z,12.63
2019-01-26T21:20:33.812Z,13.17
2019-01-26T21:23:24.158Z,13.47
2019-01-26T21:26:14.543Z,13.27
2019-01-26T21:29:04.867Z,14.20
2019-01-26T21:31:55.261Z,14.97
2019-01-26T21:34:45.554Z,14.23
2019-01-26T21:37:36.108Z,14.83
2019-01-26T21:40:28.764Z,14.90
2019-01-26T21:43:19.086Z,13.97
2019-01-26T21:46:12.491Z,14.73
2019-01-26T21:49:02.961Z,14.60
2019-01-26T21:51:53.547Z,13.53
2019-01-26T21:54:44.222Z,14.47
2019-01-26T21:57:34.889Z,13.93
2019-01-26T22:00:27.932Z,14.10
2019-01-26T22:03:18.574Z,14.13
2019-01-26T22:06:09.098Z,14.07
2019-01-26T22:08:59.599Z,13.83
2019-01-26T22:11:50.990Z,13.23
2019-01-26T22:14:41.289Z,13.50
2019-01-26T22:17:31.744Z,12.70
2019-01-26T22:20:24.758Z,13.57
2019-01-26T22:23:16.208Z,13.13
2019-01-26T22:26:06.417Z,12.97
2019-01-26T22:28:56.846Z,13.80
2019-01-26T22:31:47.220Z,12.47
2019-01-26T22:34:37.500Z,12.97
2019-01-26T22:37:28.020Z,13.00
2019-01-26T22:40:24.137Z,11.40
2019-01-26T22:43:14.806Z,11.63
2019-01-26T22:46:04.992Z,12.43
2019-01-26T22:48:57.028Z,11.43
2019-01-26T22:51:53.295Z,11.00
2019-01-26T22:54:39.828Z,11.10
2019-01-26T22:57:30.359Z,11.17
2019-01-26T23:01:03.578Z,10.73
2019-01-26T23:04:41.493Z,10.37
2019-01-26T23:07:38.448Z,9.67
2019-01-26T23:10:56.448Z,9.87
2019-01-26T23:14:30.976Z,9.70
2019-01-26T23:18:08.755Z,9.17
2019-01-26T23:21:54.515Z,8.97
2019-01-26T23:25:20.569Z,9.50
2019-01-26T23:28:53.458Z,10.17
2019-01-26T23:31:46.768Z,9.87
2019-01-26T23:34:36.923Z,9.77
2019-01-26T23:37:27.082Z,10.47
2019-01-26T23:40:17.694Z,10.43
2019-01-26T23:43:07.963Z,10.13
2019-01-26T23:45:58.244Z,10.73
2019-01-26T23:48:48.521Z,10.87
2019-01-26T23:51:39.110Z,10.80
2019-01-26T23:54:29.616Z,11.47
2019-01-26T23:57:20.108Z,11.20
